x

Seal Rocks - Between Montague And Hinchinbrook Islands, Ak (46061) Wave Buoy

7:50pm - Sat 23rd Jul 2016 All times are AKDT. -8 hours from GMT.

  • Sig Wave height 3.9ft
  • Swell Direction
  • Peak Period 10s
  • Average Period 8s
  • Wind
    9mph, 11mph gusts
  • Sea Temp 59°f
  • Air Temp 60°f
  • Sea Pressure 1001.4mb
  • Seal Rocks - Between Montague And Hinchinbrook Islands, Ak
  • Seal Rocks - Between Montague And Hinchinbrook Islands, Ak

More Historic Weather Station data

Upgrade to MSW Pro to gain access to the past 30 days of data for over 8000 Wavebouys and Weather Stations around the globe.

Join Pro

Comparision Forecast

View Surf forecast
   
Sat 07/23 7:50pm 4ft 10s 8s 9 11 mph 1001.4mb 59f 60f
6:50pm 3ft 9s 7s 11 16 mph 1001mb 60f 60f
5:50pm 3.5ft 10s 7s 11 13 mph 1000.5mb 59f 61f
4:50pm 3.5ft 10s 7s 4 7 mph 999.8mb 59f 63f
3:50pm 4ft 9s 7s 9 11 mph 999.2mb 60f 62f
2:50pm 4ft 7s 6s 9 11 mph 999mb 60f 61f
1:50pm 4ft 8s 6s 11 16 mph 998.7mb 60f 61f
12:50pm 4.5ft 7s 6s 13 16 mph 998.3mb 59f 61f
11:50am 4.5ft 7s 6s 16 18 mph 998mb 59f 61f
10:50am 4ft 7s 6s 13 16 mph 998.2mb 59f 60f
9:50am 3.5ft 7s 6s 16 18 mph 997.6mb 59f 59f
8:50am 3ft 6s 6s 20 22 mph 997.5mb 59f 58f
7:50am 3.5ft 6s  -  18 20 mph 997mb 59f 58f
6:50am 2.5ft 6s 5s 16 20 mph 997.2mb 59f 58f
5:50am 3ft 15s 5s 16 20 mph 996.9mb 59f 58f
4:50am 3ft 6s 5s 18 20 mph 997mb 59f 58f
3:50am 4ft 6s 5s 18 22 mph 997.4mb 59f 58f
2:50am 3.5ft 5s 5s 27 34 mph 997.5mb 59f 58f
1:50am 3.5ft 5s 4s 29 34 mph 997.6mb 59f 58f
12:50am 3.5ft 5s 4s 29 36 mph 998mb 59f 58f
Fri 07/22 11:50pm 3.5ft 6s 4s 29 36 mph 998.6mb 59f 58f
10:50pm 3.5ft 6s 4s 27 36 mph 999.2mb 59f 57f
9:50pm 4.5ft 6s 5s 25 29 mph 999.4mb 59f 57f
8:50pm 4.5ft 7s 5s 25 29 mph 999.7mb 59f 57f
7:50pm 4ft 6s 4s 31 38 mph 999.9mb 59f 57f
6:50pm 3.5ft 6s 4s 29 34 mph 1000.6mb 59f 57f
5:50pm 3.5ft 6s 4s 29 34 mph 1001.5mb 59f 57f
4:50pm 4ft 6s 4s 25 31 mph 1002.6mb 60f 57f
3:50pm 3ft 6s 5s 25 34 mph 1003.6mb 60f 57f
2:50pm 3.5ft 5s 4s 25 29 mph 1004.5mb 60f 57f
1:50pm 4.5ft 5s 4s 25 31 mph 1005.1mb 60f 57f
12:50pm 3.5ft 6s 4s 25 29 mph 1005.9mb 60f 58f
11:50am 4ft 5s 4s 22 27 mph 1006.5mb 60f 58f
10:50am 3.5ft 5s 4s 22 29 mph 1006.6mb 60f 58f
9:50am 3ft 5s 4s 22 27 mph 1007.1mb 60f 57f
8:50am 3ft 5s 5s 18 22 mph 1008.1mb 60f 58f
7:50am 2.5ft 15s 5s 16 20 mph 1008.5mb 60f 58f
6:50am 2.5ft 15s 5s 18 20 mph 1008.6mb 60f 58f
5:50am 2ft 15s 5s 18 20 mph 1008.9mb 60f 58f
4:50am 2ft 15s 5s 18 20 mph 1009.3mb 60f 57f
3:50am 2ft 5s 5s 20 22 mph 1009.7mb 60f 57f
2:50am 2.5ft 14s 5s 20 22 mph 1010.5mb 60f 57f
1:50am 2ft 16s 5s 18 22 mph 1010.7mb 61f 58f
12:50am 2.5ft 5s 4s 20 22 mph 1011mb 61f 58f
Thu 07/21 11:50pm 2.5ft 19s 4s 20 25 mph 1011.2mb 61f 58f
10:50pm 2.5ft 4s 4s 22 25 mph 1011.4mb 60f 58f
9:50pm 2.5ft 15s 4s 20 25 mph 1011.8mb 60f 58f
8:50pm 2.5ft 3s 4s 18 20 mph 1012mb 60f 58f
7:50pm 2.5ft 16s 5s 13 16 mph 1012.3mb 60f 58f
6:50pm 2.5ft 16s 6s 16 20 mph 1012.1mb 61f 58f
5:50pm 2ft 16s 6s 13 16 mph 1012.6mb 61f 59f
4:50pm 2.5ft 14s 5s 13 16 mph 1013mb 61f 58f
3:50pm 2.5ft 4s 5s 4 7 mph 1013.3mb 60f 58f
2:50pm 2.5ft 5s 5s 4
mph
1013.5mb 61f 58f
1:50pm 2.5ft 5s 5s 7 9 mph 1013.9mb 61f 59f
12:50pm 2ft 5s 5s 11 13 mph 1014.1mb 61f 58f
11:50am 2.5ft 6s 5s 13 16 mph 1013.7mb 60f 59f
10:50am 2.5ft 5s 5s 11 13 mph 1013.9mb 58f 60f
9:50am 2.5ft 5s 4s 13 16 mph 1014.1mb 58f 60f
8:50am 2.5ft 15s 5s 13 16 mph 1014.3mb 58f 61f
7:50am 2.5ft 7s 5s 13 16 mph 1014.1mb 59f 61f
6:50am 2.5ft 7s 5s 13 16 mph 1014.7mb 62f 62f
5:50am 2ft 8s 6s 13 16 mph 1014.4mb 62f 62f
4:50am 2ft 16s 5s 16 18 mph 1014.6mb 62f 62f
3:50am 2ft 15s 5s 13 16 mph 1014.8mb 62f 62f
2:50am 2ft 16s 5s 13
mph
1015.2mb 62f 63f
1:50am 2ft 16s 4s 13
mph
1015.3mb 63f 63f
12:50am 2.5ft 16s 5s 13 16 mph 1015.3mb 63f 63f
Wed 07/20 11:50pm 2.5ft 8s 5s 13 16 mph 1015.2mb 63f 63f
10:50pm 2.5ft 15s 5s 13 16 mph 1015.2mb 63f 63f
9:50pm 2.5ft 8s 5s 11 13 mph 1015.2mb 62f 63f
8:50pm 2ft 8s 5s 11 13 mph 1015.3mb 61f 62f
7:50pm 2ft 15s 6s 11 13 mph 1015.4mb 62f 63f
6:50pm 2ft 8s 6s 11 13 mph 1015.3mb 62f 63f
5:50pm 2.5ft 16s 6s 11 13 mph 1015.4mb 63f 63f
4:50pm 2ft 8s 6s 9 11 mph 1015.4mb 63f 63f
3:50pm 2ft 16s 6s 9 11 mph 1015.4mb 63f 62f
2:50pm 2.5ft 8s 5s 7 11 mph 1015.3mb 63f 62f
1:50pm 2.5ft 8s 5s 7 9 mph 1015.1mb 63f 63f
12:50pm 2.5ft 8s 5s 7 9 mph 1014.9mb 63f 63f
11:50am 2.5ft 8s 5s 7 9 mph 1014.8mb 63f 62f
10:50am 2.5ft 8s 6s 9
mph
1014.6mb 62f 62f
9:50am 2.5ft 8s 6s 7 9 mph 1014.5mb 61f 62f
8:50am 2.5ft 6s 6s 7
mph
1014.2mb 61f 62f
7:50am 2.5ft 8s 6s 4 7 mph 1014.2mb 62f 62f
6:50am 2.5ft 8s 7s 7 9 mph 1013.6mb 62f 62f
5:50am 2.5ft 8s 6s 9
mph
1013.2mb 62f 62f